ESKN

Stockholm Skavsta Airport

Stockholm / Nyköping, Sweden
METAR ESKN 260320Z 35009KT CAVOK M08/M10 Q1037 R26/420195
Observed Flight Rules
Feb-26 @ 03:20 UTC (12 minutes ago) Visual Flight Rules
Wind Visibility Clouds
350° at 9 knots 10,000+ meters
  • Clear skies
Temperatures Readings
Current -8°C / 18°F
Dewpoint -10°C / 14°F
Humidity 86%
Altimeter 30.62" Hg
Pressure 1037 hPa
Elevation 43
METAR ESKN 260320Z 35009KT CAVOK M08/M10 Q1037 R26/420195
Observed Flight Rules
Feb-26 @ 03:20 UTC
(12 minutes ago)
VFR
Wind Visibility
350° at 9 knots 10,000+ meters
Clouds
  • Clear skies
Temperature Dewpoint
-8°C / 18°F -10°C / 14°F
Humidity Altimeter Pressure
86% 30.62" Hg 1037 hPa